sensor_id;sensor_type;location;lat;lon;timestamp;temperature;humidity
9219;DHT22;4644;48.858;9.184;2023-08-30T00:01:10;13.70;99.90
9219;DHT22;4644;48.858;9.184;2023-08-30T00:03:37;13.70;99.90
9219;DHT22;4644;48.858;9.184;2023-08-30T00:06:04;13.60;99.90
9219;DHT22;4644;48.858;9.184;2023-08-30T00:08:31;13.70;99.90
9219;DHT22;4644;48.858;9.184;2023-08-30T00:10:58;13.70;99.90
9219;DHT22;4644;48.858;9.184;2023-08-30T00:13:25;13.60;99.90
9219;DHT22;4644;48.858;9.184;2023-08-30T00:15:53;13.60;99.90
9219;DHT22;4644;48.858;9.184;2023-08-30T00:18:21;13.70;99.90
9219;DHT22;4644;48.858;9.184;2023-08-30T00:20:49;13.70;99.90
9219;DHT22;4644;48.858;9.184;2023-08-30T00:23:16;13.70;99.90
9219;DHT22;4644;48.858;9.184;2023-08-30T00:25:43;13.70;99.90
9219;DHT22;4644;48.858;9.184;2023-08-30T00:28:10;13.70;99.90
9219;DHT22;4644;48.858;9.184;2023-08-30T00:30:37;13.80;99.90
9219;DHT22;4644;48.858;9.184;2023-08-30T00:33:04;13.70;99.90
9219;DHT22;4644;48.858;9.184;2023-08-30T00:35:34;13.70;99.90
9219;DHT22;4644;48.858;9.184;2023-08-30T00:38:01;13.70;99.90
9219;DHT22;4644;48.858;9.184;2023-08-30T00:40:28;13.70;99.90
9219;DHT22;4644;48.858;9.184;2023-08-30T00:42:56;13.70;99.90
9219;DHT22;4644;48.858;9.184;2023-08-30T00:45:25;13.70;99.90
9219;DHT22;4644;48.858;9.184;2023-08-30T00:47:52;13.70;99.90
9219;DHT22;4644;48.858;9.184;2023-08-30T00:50:20;13.70;99.90
9219;DHT22;4644;48.858;9.184;2023-08-30T00:52:48;13.70;99.90
9219;DHT22;4644;48.858;9.184;2023-08-30T00:55:16;13.60;99.90
9219;DHT22;4644;48.858;9.184;2023-08-30T00:57:43;13.60;99.90
9219;DHT22;4644;48.858;9.184;2023-08-30T01:00:11;13.60;99.90
9219;DHT22;4644;48.858;9.184;2023-08-30T01:02:38;13.60;99.90
9219;DHT22;4644;48.858;9.184;2023-08-30T01:05:06;13.60;99.90
9219;DHT22;4644;48.858;9.184;2023-08-30T01:07:34;13.60;99.90
9219;DHT22;4644;48.858;9.184;2023-08-30T01:10:02;13.60;99.90
9219;DHT22;4644;48.858;9.184;2023-08-30T01:12:37;13.60;99.90
9219;DHT22;4644;48.858;9.184;2023-08-30T01:15:10;13.50;99.90
9219;DHT22;4644;48.858;9.184;2023-08-30T01:17:40;13.50;99.90
9219;DHT22;4644;48.858;9.184;2023-08-30T01:20:08;13.50;99.90
9219;DHT22;4644;48.858;9.184;2023-08-30T01:22:45;13.50;99.90
9219;DHT22;4644;48.858;9.184;2023-08-30T01:25:33;13.40;99.90
9219;DHT22;4644;48.858;9.184;2023-08-30T01:28:05;13.40;99.90
9219;DHT22;4644;48.858;9.184;2023-08-30T01:30:34;13.30;99.90
9219;DHT22;4644;48.858;9.184;2023-08-30T01:33:03;13.30;99.90
9219;DHT22;4644;48.858;9.184;2023-08-30T01:35:33;13.30;99.90
9219;DHT22;4644;48.858;9.184;2023-08-30T01:38:03;13.30;99.90
9219;DHT22;4644;48.858;9.184;2023-08-30T01:40:33;13.20;99.90
9219;DHT22;4644;48.858;9.184;2023-08-30T01:43:03;13.10;99.90
9219;DHT22;4644;48.858;9.184;2023-08-30T01:45:32;13.10;99.90
9219;DHT22;4644;48.858;9.184;2023-08-30T01:48:00;13.10;99.90
9219;DHT22;4644;48.858;9.184;2023-08-30T01:50:27;13.10;99.90
9219;DHT22;4644;48.858;9.184;2023-08-30T01:52:55;13.10;99.90
9219;DHT22;4644;48.858;9.184;2023-08-30T01:55:23;13.10;99.90
9219;DHT22;4644;48.858;9.184;2023-08-30T01:57:51;13.10;99.90
9219;DHT22;4644;48.858;9.184;2023-08-30T02:00:20;13.00;99.90
9219;DHT22;4644;48.858;9.184;2023-08-30T02:02:48;13.00;99.90
9219;DHT22;4644;48.858;9.184;2023-08-30T02:05:15;13.00;99.90
9219;DHT22;4644;48.858;9.184;2023-08-30T02:07:49;12.90;99.90
9219;DHT22;4644;48.858;9.184;2023-08-30T02:10:22;12.90;99.90
9219;DHT22;4644;48.858;9.184;2023-08-30T02:12:53;12.90;99.90
9219;DHT22;4644;48.858;9.184;2023-08-30T02:15:24;12.90;99.90
9219;DHT22;4644;48.858;9.184;2023-08-30T02:17:52;12.90;99.90
9219;DHT22;4644;48.858;9.184;2023-08-30T02:20:19;13.00;99.90
9219;DHT22;4644;48.858;9.184;2023-08-30T02:22:47;13.00;99.90
9219;DHT22;4644;48.858;9.184;2023-08-30T02:25:13;13.00;99.90
9219;DHT22;4644;48.858;9.184;2023-08-30T02:27:40;12.90;99.90
9219;DHT22;4644;48.858;9.184;2023-08-30T02:30:08;13.00;99.90
9219;DHT22;4644;48.858;9.184;2023-08-30T02:32:37;12.90;99.90
9219;DHT22;4644;48.858;9.184;2023-08-30T02:35:04;12.90;99.90
9219;DHT22;4644;48.858;9.184;2023-08-30T02:37:32;12.90;99.90
9219;DHT22;4644;48.858;9.184;2023-08-30T02:39:58;12.90;99.90
9219;DHT22;4644;48.858;9.184;2023-08-30T02:42:26;13.00;99.90
9219;DHT22;4644;48.858;9.184;2023-08-30T02:44:53;12.90;99.90
9219;DHT22;4644;48.858;9.184;2023-08-30T02:47:20;12.90;99.90
9219;DHT22;4644;48.858;9.184;2023-08-30T02:49:48;12.90;99.90
9219;DHT22;4644;48.858;9.184;2023-08-30T02:52:16;12.90;99.90
9219;DHT22;4644;48.858;9.184;2023-08-30T02:54:43;12.90;99.90
9219;DHT22;4644;48.858;9.184;2023-08-30T02:57:10;12.90;99.90
9219;DHT22;4644;48.858;9.184;2023-08-30T02:59:37;12.90;99.90
9219;DHT22;4644;48.858;9.184;2023-08-30T03:02:05;12.90;99.90
9219;DHT22;4644;48.858;9.184;2023-08-30T03:04:33;12.90;99.90
9219;DHT22;4644;48.858;9.184;2023-08-30T03:07:01;13.00;99.90
9219;DHT22;4644;48.858;9.184;2023-08-30T03:09:28;12.90;99.90
9219;DHT22;4644;48.858;9.184;2023-08-30T03:11:55;12.90;99.90
9219;DHT22;4644;48.858;9.184;2023-08-30T03:14:22;13.00;99.90
9219;DHT22;4644;48.858;9.184;2023-08-30T03:16:49;13.00;99.90
9219;DHT22;4644;48.858;9.184;2023-08-30T03:19:16;13.00;99.90
9219;DHT22;4644;48.858;9.184;2023-08-30T03:21:43;13.10;99.90
9219;DHT22;4644;48.858;9.184;2023-08-30T03:24:12;13.10;99.90
9219;DHT22;4644;48.858;9.184;2023-08-30T03:26:42;13.10;99.90
9219;DHT22;4644;48.858;9.184;2023-08-30T03:29:09;13.10;99.90
9219;DHT22;4644;48.858;9.184;2023-08-30T03:31:36;13.20;99.90
9219;DHT22;4644;48.858;9.184;2023-08-30T03:34:06;13.20;99.90
9219;DHT22;4644;48.858;9.184;2023-08-30T03:36:33;13.20;99.90
9219;DHT22;4644;48.858;9.184;2023-08-30T03:39:00;13.20;99.90
9219;DHT22;4644;48.858;9.184;2023-08-30T03:41:28;13.20;99.90
9219;DHT22;4644;48.858;9.184;2023-08-30T03:43:55;13.20;99.90
9219;DHT22;4644;48.858;9.184;2023-08-30T03:46:22;13.20;99.90
9219;DHT22;4644;48.858;9.184;2023-08-30T03:48:49;13.20;99.90
9219;DHT22;4644;48.858;9.184;2023-08-30T03:51:16;13.20;99.90
9219;DHT22;4644;48.858;9.184;2023-08-30T03:53:43;13.20;99.90
9219;DHT22;4644;48.858;9.184;2023-08-30T03:56:10;13.20;99.90
9219;DHT22;4644;48.858;9.184;2023-08-30T03:58:38;13.20;99.90
9219;DHT22;4644;48.858;9.184;2023-08-30T04:01:05;13.20;99.90
9219;DHT22;4644;48.858;9.184;2023-08-30T04:03:33;13.20;99.90
9219;DHT22;4644;48.858;9.184;2023-08-30T04:06:00;13.30;99.90
9219;DHT22;4644;48.858;9.184;2023-08-30T04:08:27;13.30;99.90
9219;DHT22;4644;48.858;9.184;2023-08-30T04:10:54;13.30;99.90
9219;DHT22;4644;48.858;9.184;2023-08-30T04:13:20;13.30;99.90
9219;DHT22;4644;48.858;9.184;2023-08-30T04:15:48;13.30;99.90
9219;DHT22;4644;48.858;9.184;2023-08-30T04:18:15;13.20;99.90
9219;DHT22;4644;48.858;9.184;2023-08-30T04:20:46;13.20;99.90
9219;DHT22;4644;48.858;9.184;2023-08-30T04:23:13;13.10;99.90
9219;DHT22;4644;48.858;9.184;2023-08-30T04:25:40;13.10;99.90
9219;DHT22;4644;48.858;9.184;2023-08-30T04:28:08;13.10;99.90
9219;DHT22;4644;48.858;9.184;2023-08-30T04:30:36;13.20;99.90
9219;DHT22;4644;48.858;9.184;2023-08-30T04:33:05;13.20;99.90
9219;DHT22;4644;48.858;9.184;2023-08-30T04:35:32;13.20;99.90
9219;DHT22;4644;48.858;9.184;2023-08-30T04:38:00;13.20;99.90
9219;DHT22;4644;48.858;9.184;2023-08-30T04:40:28;13.20;99.90
9219;DHT22;4644;48.858;9.184;2023-08-30T04:42:56;13.20;99.90
9219;DHT22;4644;48.858;9.184;2023-08-30T04:45:23;13.20;99.90
9219;DHT22;4644;48.858;9.184;2023-08-30T04:47:50;13.10;99.90
9219;DHT22;4644;48.858;9.184;2023-08-30T04:50:20;13.20;99.90
9219;DHT22;4644;48.858;9.184;2023-08-30T04:52:47;13.20;99.90
9219;DHT22;4644;48.858;9.184;2023-08-30T04:55:14;13.20;99.90
9219;DHT22;4644;48.858;9.184;2023-08-30T04:57:41;13.20;99.90
9219;DHT22;4644;48.858;9.184;2023-08-30T05:00:11;13.30;99.90
9219;DHT22;4644;48.858;9.184;2023-08-30T05:02:38;13.30;99.90
9219;DHT22;4644;48.858;9.184;2023-08-30T05:05:08;13.30;99.90
9219;DHT22;4644;48.858;9.184;2023-08-30T05:07:36;13.20;99.90
9219;DHT22;4644;48.858;9.184;2023-08-30T05:10:04;13.20;99.90
9219;DHT22;4644;48.858;9.184;2023-08-30T05:12:32;13.20;99.90
9219;DHT22;4644;48.858;9.184;2023-08-30T05:14:59;13.30;99.90
9219;DHT22;4644;48.858;9.184;2023-08-30T05:17:29;13.30;99.90
9219;DHT22;4644;48.858;9.184;2023-08-30T05:19:56;13.30;99.90
9219;DHT22;4644;48.858;9.184;2023-08-30T05:22:23;13.30;99.90
9219;DHT22;4644;48.858;9.184;2023-08-30T05:24:51;13.30;99.90
9219;DHT22;4644;48.858;9.184;2023-08-30T05:27:18;13.30;99.90
9219;DHT22;4644;48.858;9.184;2023-08-30T05:29:44;13.40;99.90
9219;DHT22;4644;48.858;9.184;2023-08-30T05:32:11;13.40;99.90
9219;DHT22;4644;48.858;9.184;2023-08-30T05:34:38;13.40;99.90
9219;DHT22;4644;48.858;9.184;2023-08-30T05:37:05;13.40;99.90
9219;DHT22;4644;48.858;9.184;2023-08-30T05:39:32;13.40;99.90
9219;DHT22;4644;48.858;9.184;2023-08-30T05:41:59;13.40;99.90
9219;DHT22;4644;48.858;9.184;2023-08-30T05:44:26;13.40;99.90
9219;DHT22;4644;48.858;9.184;2023-08-30T05:46:53;13.50;99.90
9219;DHT22;4644;48.858;9.184;2023-08-30T05:49:20;13.60;99.90
9219;DHT22;4644;48.858;9.184;2023-08-30T05:51:47;13.60;99.90
9219;DHT22;4644;48.858;9.184;2023-08-30T05:54:14;13.50;99.90
9219;DHT22;4644;48.858;9.184;2023-08-30T05:56:41;13.60;99.90
9219;DHT22;4644;48.858;9.184;2023-08-30T05:59:11;13.70;99.90
9219;DHT22;4644;48.858;9.184;2023-08-30T06:01:38;13.70;99.90
9219;DHT22;4644;48.858;9.184;2023-08-30T06:04:05;13.70;99.90
9219;DHT22;4644;48.858;9.184;2023-08-30T06:06:32;13.70;99.90
9219;DHT22;4644;48.858;9.184;2023-08-30T06:08:59;13.80;99.90
9219;DHT22;4644;48.858;9.184;2023-08-30T06:11:26;13.80;99.90
9219;DHT22;4644;48.858;9.184;2023-08-30T06:13:53;13.90;99.90
9219;DHT22;4644;48.858;9.184;2023-08-30T06:16:22;13.90;99.90
9219;DHT22;4644;48.858;9.184;2023-08-30T06:18:49;13.90;99.90
9219;DHT22;4644;48.858;9.184;2023-08-30T06:21:16;13.80;99.90
9219;DHT22;4644;48.858;9.184;2023-08-30T06:23:43;13.90;99.90
9219;DHT22;4644;48.858;9.184;2023-08-30T06:26:10;13.90;99.90
9219;DHT22;4644;48.858;9.184;2023-08-30T06:28:37;13.90;99.90
9219;DHT22;4644;48.858;9.184;2023-08-30T06:31:04;13.90;99.90
9219;DHT22;4644;48.858;9.184;2023-08-30T06:33:32;13.90;99.90
9219;DHT22;4644;48.858;9.184;2023-08-30T06:35:59;14.00;99.90
9219;DHT22;4644;48.858;9.184;2023-08-30T06:38:26;14.10;99.90
9219;DHT22;4644;48.858;9.184;2023-08-30T06:40:53;14.10;99.90
9219;DHT22;4644;48.858;9.184;2023-08-30T06:43:20;14.10;99.90
9219;DHT22;4644;48.858;9.184;2023-08-30T06:45:47;14.20;99.90
9219;DHT22;4644;48.858;9.184;2023-08-30T06:48:14;14.20;99.90
9219;DHT22;4644;48.858;9.184;2023-08-30T06:50:43;14.30;99.90
9219;DHT22;4644;48.858;9.184;2023-08-30T06:53:10;14.30;99.90
9219;DHT22;4644;48.858;9.184;2023-08-30T06:55:37;14.40;99.90
9219;DHT22;4644;48.858;9.184;2023-08-30T06:58:04;14.60;99.90
9219;DHT22;4644;48.858;9.184;2023-08-30T07:00:31;14.60;99.90
9219;DHT22;4644;48.858;9.184;2023-08-30T07:02:58;14.60;99.90
9219;DHT22;4644;48.858;9.184;2023-08-30T07:05:25;14.60;99.90
9219;DHT22;4644;48.858;9.184;2023-08-30T07:07:53;14.70;99.90
9219;DHT22;4644;48.858;9.184;2023-08-30T07:10:20;14.80;99.90
9219;DHT22;4644;48.858;9.184;2023-08-30T07:12:47;14.90;99.90
9219;DHT22;4644;48.858;9.184;2023-08-30T07:15:15;14.90;99.90
9219;DHT22;4644;48.858;9.184;2023-08-30T07:17:43;15.00;99.90
9219;DHT22;4644;48.858;9.184;2023-08-30T07:20:11;15.00;99.90
9219;DHT22;4644;48.858;9.184;2023-08-30T07:22:38;15.00;99.90
9219;DHT22;4644;48.858;9.184;2023-08-30T07:25:07;15.10;99.90
9219;DHT22;4644;48.858;9.184;2023-08-30T07:27:36;15.00;99.90
9219;DHT22;4644;48.858;9.184;2023-08-30T07:30:06;15.00;99.90
9219;DHT22;4644;48.858;9.184;2023-08-30T07:32:33;14.90;99.90
9219;DHT22;4644;48.858;9.184;2023-08-30T07:35:04;14.90;99.90
9219;DHT22;4644;48.858;9.184;2023-08-30T07:37:31;14.80;99.90
9219;DHT22;4644;48.858;9.184;2023-08-30T07:39:57;14.70;99.90
9219;DHT22;4644;48.858;9.184;2023-08-30T07:42:25;14.90;99.90
9219;DHT22;4644;48.858;9.184;2023-08-30T07:44:52;14.90;99.90
9219;DHT22;4644;48.858;9.184;2023-08-30T07:47:19;15.00;99.90
9219;DHT22;4644;48.858;9.184;2023-08-30T07:49:46;14.90;99.90
9219;DHT22;4644;48.858;9.184;2023-08-30T07:52:14;15.00;99.90
9219;DHT22;4644;48.858;9.184;2023-08-30T07:54:41;15.10;99.90
9219;DHT22;4644;48.858;9.184;2023-08-30T07:57:08;15.20;99.90
9219;DHT22;4644;48.858;9.184;2023-08-30T07:59:37;15.20;99.90
9219;DHT22;4644;48.858;9.184;2023-08-30T08:02:04;15.30;99.90
9219;DHT22;4644;48.858;9.184;2023-08-30T08:04:33;15.30;99.90
9219;DHT22;4644;48.858;9.184;2023-08-30T08:07:00;15.40;99.90
9219;DHT22;4644;48.858;9.184;2023-08-30T08:09:27;15.30;99.90
9219;DHT22;4644;48.858;9.184;2023-08-30T08:11:55;15.30;99.90
9219;DHT22;4644;48.858;9.184;2023-08-30T08:14:23;15.40;99.90
9219;DHT22;4644;48.858;9.184;2023-08-30T08:16:51;15.40;99.90
9219;DHT22;4644;48.858;9.184;2023-08-30T08:19:18;15.50;99.90
9219;DHT22;4644;48.858;9.184;2023-08-30T08:21:47;15.50;99.90
9219;DHT22;4644;48.858;9.184;2023-08-30T08:24:17;15.60;99.90
9219;DHT22;4644;48.858;9.184;2023-08-30T08:26:44;15.80;99.90
9219;DHT22;4644;48.858;9.184;2023-08-30T08:29:11;16.00;99.90
9219;DHT22;4644;48.858;9.184;2023-08-30T08:31:39;16.00;99.90
9219;DHT22;4644;48.858;9.184;2023-08-30T08:34:09;16.00;99.90
9219;DHT22;4644;48.858;9.184;2023-08-30T08:36:37;15.90;99.90
9219;DHT22;4644;48.858;9.184;2023-08-30T08:39:04;16.00;99.90
9219;DHT22;4644;48.858;9.184;2023-08-30T08:41:36;16.00;99.90
9219;DHT22;4644;48.858;9.184;2023-08-30T08:44:05;16.10;99.90
9219;DHT22;4644;48.858;9.184;2023-08-30T08:46:35;16.20;99.90
9219;DHT22;4644;48.858;9.184;2023-08-30T08:49:15;16.20;99.90
9219;DHT22;4644;48.858;9.184;2023-08-30T08:51:44;16.20;99.90
9219;DHT22;4644;48.858;9.184;2023-08-30T08:54:12;16.10;99.90
9219;DHT22;4644;48.858;9.184;2023-08-30T08:56:39;16.20;99.90
9219;DHT22;4644;48.858;9.184;2023-08-30T08:59:07;16.30;99.90
9219;DHT22;4644;48.858;9.184;2023-08-30T09:01:34;16.40;99.90
9219;DHT22;4644;48.858;9.184;2023-08-30T09:04:04;16.60;99.90
9219;DHT22;4644;48.858;9.184;2023-08-30T09:06:33;16.90;99.90
9219;DHT22;4644;48.858;9.184;2023-08-30T09:09:02;17.20;99.90
9219;DHT22;4644;48.858;9.184;2023-08-30T09:11:30;17.60;99.90
9219;DHT22;4644;48.858;9.184;2023-08-30T09:13:57;17.80;99.90
9219;DHT22;4644;48.858;9.184;2023-08-30T09:16:24;17.70;99.90
9219;DHT22;4644;48.858;9.184;2023-08-30T09:18:58;17.80;99.90
9219;DHT22;4644;48.858;9.184;2023-08-30T09:21:25;18.20;99.90
9219;DHT22;4644;48.858;9.184;2023-08-30T09:24:01;18.50;99.90
9219;DHT22;4644;48.858;9.184;2023-08-30T09:26:29;18.80;99.90
9219;DHT22;4644;48.858;9.184;2023-08-30T09:29:01;19.00;99.90
9219;DHT22;4644;48.858;9.184;2023-08-30T09:31:33;19.30;99.90
9219;DHT22;4644;48.858;9.184;2023-08-30T09:34:00;19.70;99.90
9219;DHT22;4644;48.858;9.184;2023-08-30T09:36:33;19.70;99.90
9219;DHT22;4644;48.858;9.184;2023-08-30T09:39:05;19.50;99.90
9219;DHT22;4644;48.858;9.184;2023-08-30T09:41:32;18.80;99.90
9219;DHT22;4644;48.858;9.184;2023-08-30T09:43:59;18.50;99.90
9219;DHT22;4644;48.858;9.184;2023-08-30T09:46:27;18.70;99.90
9219;DHT22;4644;48.858;9.184;2023-08-30T09:48:55;19.00;99.90
9219;DHT22;4644;48.858;9.184;2023-08-30T09:51:23;19.40;99.90
9219;DHT22;4644;48.858;9.184;2023-08-30T09:53:54;19.50;99.90
9219;DHT22;4644;48.858;9.184;2023-08-30T09:56:27;19.70;99.90
9219;DHT22;4644;48.858;9.184;2023-08-30T09:58:54;19.50;99.90
9219;DHT22;4644;48.858;9.184;2023-08-30T10:01:22;19.60;99.90
9219;DHT22;4644;48.858;9.184;2023-08-30T10:03:49;19.90;99.90
9219;DHT22;4644;48.858;9.184;2023-08-30T10:06:17;20.00;99.90
9219;DHT22;4644;48.858;9.184;2023-08-30T10:08:45;20.30;99.90
9219;DHT22;4644;48.858;9.184;2023-08-30T10:11:14;20.10;99.90
9219;DHT22;4644;48.858;9.184;2023-08-30T10:13:45;20.20;99.90
9219;DHT22;4644;48.858;9.184;2023-08-30T10:16:18;20.30;99.90
9219;DHT22;4644;48.858;9.184;2023-08-30T10:18:47;20.40;99.90
9219;DHT22;4644;48.858;9.184;2023-08-30T10:21:18;20.40;99.90
9219;DHT22;4644;48.858;9.184;2023-08-30T10:23:46;20.60;99.90
9219;DHT22;4644;48.858;9.184;2023-08-30T10:26:15;20.70;99.90
9219;DHT22;4644;48.858;9.184;2023-08-30T10:28:45;20.70;99.90
9219;DHT22;4644;48.858;9.184;2023-08-30T10:31:13;20.40;99.90
9219;DHT22;4644;48.858;9.184;2023-08-30T10:33:50;20.50;99.90
9219;DHT22;4644;48.858;9.184;2023-08-30T10:36:21;20.70;99.90
9219;DHT22;4644;48.858;9.184;2023-08-30T10:38:49;21.00;99.90
9219;DHT22;4644;48.858;9.184;2023-08-30T10:41:20;21.10;99.90
9219;DHT22;4644;48.858;9.184;2023-08-30T10:43:55;20.80;99.90
9219;DHT22;4644;48.858;9.184;2023-08-30T10:46:32;20.80;99.90
9219;DHT22;4644;48.858;9.184;2023-08-30T10:49:09;21.00;99.90
9219;DHT22;4644;48.858;9.184;2023-08-30T10:51:37;21.00;99.90
9219;DHT22;4644;48.858;9.184;2023-08-30T10:54:11;21.10;99.90
9219;DHT22;4644;48.858;9.184;2023-08-30T10:56:53;21.10;99.90
9219;DHT22;4644;48.858;9.184;2023-08-30T10:59:23;21.30;99.90
9219;DHT22;4644;48.858;9.184;2023-08-30T11:01:51;21.40;99.90
9219;DHT22;4644;48.858;9.184;2023-08-30T11:04:19;21.30;99.90
9219;DHT22;4644;48.858;9.184;2023-08-30T11:06:49;20.90;99.90
9219;DHT22;4644;48.858;9.184;2023-08-30T11:09:23;20.90;99.90
9219;DHT22;4644;48.858;9.184;2023-08-30T11:11:51;20.50;99.90
9219;DHT22;4644;48.858;9.184;2023-08-30T11:14:18;19.90;99.90
9219;DHT22;4644;48.858;9.184;2023-08-30T11:16:47;19.90;99.90
9219;DHT22;4644;48.858;9.184;2023-08-30T11:19:14;19.90;99.90
9219;DHT22;4644;48.858;9.184;2023-08-30T11:21:43;19.80;99.90
9219;DHT22;4644;48.858;9.184;2023-08-30T11:24:11;19.80;99.90
9219;DHT22;4644;48.858;9.184;2023-08-30T11:26:38;19.60;99.90
9219;DHT22;4644;48.858;9.184;2023-08-30T11:29:06;19.50;99.90
9219;DHT22;4644;48.858;9.184;2023-08-30T11:31:34;19.30;99.90
9219;DHT22;4644;48.858;9.184;2023-08-30T11:34:02;19.10;99.90
9219;DHT22;4644;48.858;9.184;2023-08-30T11:36:31;19.00;99.90
9219;DHT22;4644;48.858;9.184;2023-08-30T11:38:58;18.80;99.90
9219;DHT22;4644;48.858;9.184;2023-08-30T11:41:25;18.50;99.90
9219;DHT22;4644;48.858;9.184;2023-08-30T11:43:54;18.40;99.90
9219;DHT22;4644;48.858;9.184;2023-08-30T11:46:21;18.30;99.90
9219;DHT22;4644;48.858;9.184;2023-08-30T11:48:50;18.20;99.90
9219;DHT22;4644;48.858;9.184;2023-08-30T11:51:19;18.00;99.90
9219;DHT22;4644;48.858;9.184;2023-08-30T11:53:46;17.90;99.90
9219;DHT22;4644;48.858;9.184;2023-08-30T11:56:15;17.90;99.90
9219;DHT22;4644;48.858;9.184;2023-08-30T11:58:43;17.70;99.90
9219;DHT22;4644;48.858;9.184;2023-08-30T12:01:11;17.50;99.90
9219;DHT22;4644;48.858;9.184;2023-08-30T12:03:38;17.30;99.90
9219;DHT22;4644;48.858;9.184;2023-08-30T12:06:09;17.00;99.90
9219;DHT22;4644;48.858;9.184;2023-08-30T12:08:38;16.80;99.90
9219;DHT22;4644;48.858;9.184;2023-08-30T12:11:05;16.70;99.90
9219;DHT22;4644;48.858;9.184;2023-08-30T12:13:33;16.50;99.90
9219;DHT22;4644;48.858;9.184;2023-08-30T12:16:01;16.60;99.90
9219;DHT22;4644;48.858;9.184;2023-08-30T12:18:31;16.50;99.90
9219;DHT22;4644;48.858;9.184;2023-08-30T12:21:00;16.40;99.90
9219;DHT22;4644;48.858;9.184;2023-08-30T12:23:30;16.60;99.90
9219;DHT22;4644;48.858;9.184;2023-08-30T12:25:59;16.50;99.90
9219;DHT22;4644;48.858;9.184;2023-08-30T12:28:27;16.50;99.90
9219;DHT22;4644;48.858;9.184;2023-08-30T12:30:55;16.60;99.90
9219;DHT22;4644;48.858;9.184;2023-08-30T12:33:22;16.70;99.90
9219;DHT22;4644;48.858;9.184;2023-08-30T12:35:51;16.70;99.90
9219;DHT22;4644;48.858;9.184;2023-08-30T12:38:18;16.90;99.90
9219;DHT22;4644;48.858;9.184;2023-08-30T12:40:45;17.00;99.90
9219;DHT22;4644;48.858;9.184;2023-08-30T12:43:14;17.10;99.90
9219;DHT22;4644;48.858;9.184;2023-08-30T12:45:42;17.20;99.90
9219;DHT22;4644;48.858;9.184;2023-08-30T12:48:10;17.50;99.90
9219;DHT22;4644;48.858;9.184;2023-08-30T12:50:38;17.40;99.90
9219;DHT22;4644;48.858;9.184;2023-08-30T12:53:06;17.40;99.90
9219;DHT22;4644;48.858;9.184;2023-08-30T12:55:33;17.50;99.90
9219;DHT22;4644;48.858;9.184;2023-08-30T12:58:01;17.70;99.90
9219;DHT22;4644;48.858;9.184;2023-08-30T13:00:30;18.00;99.90
9219;DHT22;4644;48.858;9.184;2023-08-30T13:02:58;18.20;99.90
9219;DHT22;4644;48.858;9.184;2023-08-30T13:05:26;18.60;99.90
9219;DHT22;4644;48.858;9.184;2023-08-30T13:07:53;18.70;99.90
9219;DHT22;4644;48.858;9.184;2023-08-30T13:10:20;19.00;99.90
9219;DHT22;4644;48.858;9.184;2023-08-30T13:12:47;19.30;99.90
9219;DHT22;4644;48.858;9.184;2023-08-30T13:15:14;19.40;99.90
9219;DHT22;4644;48.858;9.184;2023-08-30T13:17:43;19.40;99.90
9219;DHT22;4644;48.858;9.184;2023-08-30T13:20:10;19.50;99.90
9219;DHT22;4644;48.858;9.184;2023-08-30T13:22:38;19.50;99.90
9219;DHT22;4644;48.858;9.184;2023-08-30T13:25:06;19.50;99.90
9219;DHT22;4644;48.858;9.184;2023-08-30T13:27:34;19.60;99.90
9219;DHT22;4644;48.858;9.184;2023-08-30T13:30:01;19.60;99.90
9219;DHT22;4644;48.858;9.184;2023-08-30T13:32:28;19.40;99.90
9219;DHT22;4644;48.858;9.184;2023-08-30T13:34:57;19.50;99.90
9219;DHT22;4644;48.858;9.184;2023-08-30T13:37:24;19.70;99.90
9219;DHT22;4644;48.858;9.184;2023-08-30T13:39:52;19.70;99.90
9219;DHT22;4644;48.858;9.184;2023-08-30T13:42:20;19.70;99.90
9219;DHT22;4644;48.858;9.184;2023-08-30T13:44:50;19.80;99.90
9219;DHT22;4644;48.858;9.184;2023-08-30T13:47:17;19.70;99.90
9219;DHT22;4644;48.858;9.184;2023-08-30T13:49:44;19.90;99.90
9219;DHT22;4644;48.858;9.184;2023-08-30T13:52:13;19.90;99.90
9219;DHT22;4644;48.858;9.184;2023-08-30T13:54:40;19.90;99.90
9219;DHT22;4644;48.858;9.184;2023-08-30T13:57:07;19.70;99.90
9219;DHT22;4644;48.858;9.184;2023-08-30T13:59:34;19.70;99.90
9219;DHT22;4644;48.858;9.184;2023-08-30T14:02:02;19.70;99.90
9219;DHT22;4644;48.858;9.184;2023-08-30T14:04:30;19.80;99.90
9219;DHT22;4644;48.858;9.184;2023-08-30T14:06:59;19.90;99.90
9219;DHT22;4644;48.858;9.184;2023-08-30T14:09:28;19.90;99.90
9219;DHT22;4644;48.858;9.184;2023-08-30T14:11:55;19.80;99.90
9219;DHT22;4644;48.858;9.184;2023-08-30T14:14:23;19.90;99.90
9219;DHT22;4644;48.858;9.184;2023-08-30T14:16:50;19.80;99.90
9219;DHT22;4644;48.858;9.184;2023-08-30T14:19:17;19.70;99.90
9219;DHT22;4644;48.858;9.184;2023-08-30T14:21:44;19.60;99.90
9219;DHT22;4644;48.858;9.184;2023-08-30T14:24:11;19.50;99.90
9219;DHT22;4644;48.858;9.184;2023-08-30T14:26:39;19.60;99.90
9219;DHT22;4644;48.858;9.184;2023-08-30T14:29:06;19.50;99.90
9219;DHT22;4644;48.858;9.184;2023-08-30T14:31:33;19.40;99.90
9219;DHT22;4644;48.858;9.184;2023-08-30T14:34:00;19.30;99.90
9219;DHT22;4644;48.858;9.184;2023-08-30T14:36:28;19.30;99.90
9219;DHT22;4644;48.858;9.184;2023-08-30T14:38:55;19.30;99.90
9219;DHT22;4644;48.858;9.184;2023-08-30T14:41:22;19.10;99.90
9219;DHT22;4644;48.858;9.184;2023-08-30T14:43:50;19.00;99.90
9219;DHT22;4644;48.858;9.184;2023-08-30T14:46:17;19.00;99.90
9219;DHT22;4644;48.858;9.184;2023-08-30T14:48:45;18.90;99.90
9219;DHT22;4644;48.858;9.184;2023-08-30T14:51:12;18.80;99.90
9219;DHT22;4644;48.858;9.184;2023-08-30T14:53:39;18.80;99.90
9219;DHT22;4644;48.858;9.184;2023-08-30T14:56:06;18.70;99.90
9219;DHT22;4644;48.858;9.184;2023-08-30T14:58:34;18.50;99.90
9219;DHT22;4644;48.858;9.184;2023-08-30T15:01:03;18.30;99.90
9219;DHT22;4644;48.858;9.184;2023-08-30T15:03:30;18.10;99.90
9219;DHT22;4644;48.858;9.184;2023-08-30T15:05:57;18.00;99.90
9219;DHT22;4644;48.858;9.184;2023-08-30T15:08:24;17.80;99.90
9219;DHT22;4644;48.858;9.184;2023-08-30T15:10:52;17.50;99.90
9219;DHT22;4644;48.858;9.184;2023-08-30T15:13:20;17.30;99.90
9219;DHT22;4644;48.858;9.184;2023-08-30T15:15:47;17.30;99.90
9219;DHT22;4644;48.858;9.184;2023-08-30T15:18:15;17.30;99.90
9219;DHT22;4644;48.858;9.184;2023-08-30T15:20:42;17.50;99.90
9219;DHT22;4644;48.858;9.184;2023-08-30T15:23:13;17.70;99.90
9219;DHT22;4644;48.858;9.184;2023-08-30T15:25:44;18.00;99.90
9219;DHT22;4644;48.858;9.184;2023-08-30T15:28:11;18.10;99.90
9219;DHT22;4644;48.858;9.184;2023-08-30T15:30:41;18.30;99.90
9219;DHT22;4644;48.858;9.184;2023-08-30T15:33:09;18.50;99.90
9219;DHT22;4644;48.858;9.184;2023-08-30T15:35:38;18.50;99.90
9219;DHT22;4644;48.858;9.184;2023-08-30T15:38:05;18.60;99.90
9219;DHT22;4644;48.858;9.184;2023-08-30T15:40:33;18.60;99.90
9219;DHT22;4644;48.858;9.184;2023-08-30T15:43:00;18.70;99.90
9219;DHT22;4644;48.858;9.184;2023-08-30T15:45:28;18.70;99.90
9219;DHT22;4644;48.858;9.184;2023-08-30T15:47:55;18.80;99.90
9219;DHT22;4644;48.858;9.184;2023-08-30T15:50:22;18.80;99.90
9219;DHT22;4644;48.858;9.184;2023-08-30T15:52:51;18.80;99.90
9219;DHT22;4644;48.858;9.184;2023-08-30T15:55:18;18.80;99.90
9219;DHT22;4644;48.858;9.184;2023-08-30T15:57:45;18.80;99.90
9219;DHT22;4644;48.858;9.184;2023-08-30T16:00:13;18.80;99.90
9219;DHT22;4644;48.858;9.184;2023-08-30T16:02:40;18.80;99.90
9219;DHT22;4644;48.858;9.184;2023-08-30T16:05:07;18.90;99.90
9219;DHT22;4644;48.858;9.184;2023-08-30T16:07:36;19.00;99.90